sensor_id;sensor_type;location;lat;lon;timestamp;P1;durP1;ratioP1;P2;durP2;ratioP2
50225;SDS011;36113;50.742;6.432;2023-05-14T00:00:14;5.88;;;5.38;;
50225;SDS011;36113;50.742;6.432;2023-05-14T00:02:40;6.97;;;5.50;;
50225;SDS011;36113;50.742;6.432;2023-05-14T00:05:06;5.75;;;5.35;;
50225;SDS011;36113;50.742;6.432;2023-05-14T00:07:32;6.55;;;5.85;;
50225;SDS011;36113;50.742;6.432;2023-05-14T00:09:57;6.13;;;5.63;;
50225;SDS011;36113;50.742;6.432;2023-05-14T00:12:23;8.87;;;5.80;;
50225;SDS011;36113;50.742;6.432;2023-05-14T00:14:50;7.00;;;6.25;;
50225;SDS011;36113;50.742;6.432;2023-05-14T00:17:15;7.68;;;5.80;;
50225;SDS011;36113;50.742;6.432;2023-05-14T00:19:41;6.65;;;6.07;;
50225;SDS011;36113;50.742;6.432;2023-05-14T00:22:07;6.30;;;5.80;;
50225;SDS011;36113;50.742;6.432;2023-05-14T00:24:33;6.30;;;5.87;;
50225;SDS011;36113;50.742;6.432;2023-05-14T00:26:58;7.13;;;6.47;;
50225;SDS011;36113;50.742;6.432;2023-05-14T00:29:24;6.97;;;6.38;;
50225;SDS011;36113;50.742;6.432;2023-05-14T00:31:49;7.40;;;6.68;;
50225;SDS011;36113;50.742;6.432;2023-05-14T00:34:14;9.35;;;6.40;;
50225;SDS011;36113;50.742;6.432;2023-05-14T00:36:40;7.97;;;6.90;;
50225;SDS011;36113;50.742;6.432;2023-05-14T00:39:05;7.38;;;6.68;;
50225;SDS011;36113;50.742;6.432;2023-05-14T00:41:30;8.02;;;7.10;;
50225;SDS011;36113;50.742;6.432;2023-05-14T00:43:56;7.00;;;6.50;;
50225;SDS011;36113;50.742;6.432;2023-05-14T00:46:21;6.97;;;6.28;;
50225;SDS011;36113;50.742;6.432;2023-05-14T00:48:46;6.95;;;6.45;;
50225;SDS011;36113;50.742;6.432;2023-05-14T00:51:12;7.07;;;6.50;;
50225;SDS011;36113;50.742;6.432;2023-05-14T00:53:37;8.57;;;6.40;;
50225;SDS011;36113;50.742;6.432;2023-05-14T00:56:03;7.28;;;6.55;;
50225;SDS011;36113;50.742;6.432;2023-05-14T00:58:29;6.72;;;6.18;;
50225;SDS011;36113;50.742;6.432;2023-05-14T01:00:54;6.72;;;6.22;;
50225;SDS011;36113;50.742;6.432;2023-05-14T01:03:20;6.70;;;6.10;;
50225;SDS011;36113;50.742;6.432;2023-05-14T01:08:35;6.82;;;6.10;;
50225;SDS011;36113;50.742;6.432;2023-05-14T01:11:11;9.30;;;6.53;;
50225;SDS011;36113;50.742;6.432;2023-05-14T01:16:27;7.07;;;6.38;;
50225;SDS011;36113;50.742;6.432;2023-05-14T01:18:55;7.80;;;7.10;;
50225;SDS011;36113;50.742;6.432;2023-05-14T01:24:04;6.93;;;6.43;;
50225;SDS011;36113;50.742;6.432;2023-05-14T01:26:30;7.97;;;6.97;;
50225;SDS011;36113;50.742;6.432;2023-05-14T01:28:57;11.30;;;7.07;;
50225;SDS011;36113;50.742;6.432;2023-05-14T01:31:34;9.93;;;7.30;;
50225;SDS011;36113;50.742;6.432;2023-05-14T01:34:03;8.25;;;7.55;;
50225;SDS011;36113;50.742;6.432;2023-05-14T01:36:30;7.07;;;6.32;;
50225;SDS011;36113;50.742;6.432;2023-05-14T01:41:22;8.45;;;7.65;;
50225;SDS011;36113;50.742;6.432;2023-05-14T01:46:18;7.88;;;7.15;;
50225;SDS011;36113;50.742;6.432;2023-05-14T01:48:44;10.50;;;7.88;;
50225;SDS011;36113;50.742;6.432;2023-05-14T01:51:09;8.75;;;7.95;;
50225;SDS011;36113;50.742;6.432;2023-05-14T01:53:35;10.10;;;8.60;;
50225;SDS011;36113;50.742;6.432;2023-05-14T01:56:00;10.25;;;8.93;;
50225;SDS011;36113;50.742;6.432;2023-05-14T01:58:26;11.18;;;8.57;;
50225;SDS011;36113;50.742;6.432;2023-05-14T02:00:51;12.05;;;9.07;;
50225;SDS011;36113;50.742;6.432;2023-05-14T02:03:17;10.27;;;8.88;;
50225;SDS011;36113;50.742;6.432;2023-05-14T02:05:42;10.00;;;9.18;;
50225;SDS011;36113;50.742;6.432;2023-05-14T02:08:07;10.38;;;9.38;;
50225;SDS011;36113;50.742;6.432;2023-05-14T02:10:33;11.65;;;10.27;;
50225;SDS011;36113;50.742;6.432;2023-05-14T02:12:58;11.60;;;10.48;;
50225;SDS011;36113;50.742;6.432;2023-05-14T02:15:23;14.13;;;10.82;;
50225;SDS011;36113;50.742;6.432;2023-05-14T02:17:48;14.77;;;10.98;;
50225;SDS011;36113;50.742;6.432;2023-05-14T02:20:14;12.43;;;11.20;;
50225;SDS011;36113;50.742;6.432;2023-05-14T02:22:39;13.63;;;12.15;;
50225;SDS011;36113;50.742;6.432;2023-05-14T02:25:09;13.13;;;11.23;;
50225;SDS011;36113;50.742;6.432;2023-05-14T02:27:34;13.48;;;12.15;;
50225;SDS011;36113;50.742;6.432;2023-05-14T02:30:00;13.15;;;11.60;;
50225;SDS011;36113;50.742;6.432;2023-05-14T02:32:26;15.48;;;12.23;;
50225;SDS011;36113;50.742;6.432;2023-05-14T02:34:52;13.57;;;11.27;;
50225;SDS011;36113;50.742;6.432;2023-05-14T02:37:17;20.27;;;13.38;;
50225;SDS011;36113;50.742;6.432;2023-05-14T02:39:42;14.90;;;13.10;;
50225;SDS011;36113;50.742;6.432;2023-05-14T02:42:08;18.63;;;13.75;;
50225;SDS011;36113;50.742;6.432;2023-05-14T02:44:33;15.40;;;13.45;;
50225;SDS011;36113;50.742;6.432;2023-05-14T02:46:58;17.30;;;12.90;;
50225;SDS011;36113;50.742;6.432;2023-05-14T02:49:24;19.98;;;13.45;;
50225;SDS011;36113;50.742;6.432;2023-05-14T02:51:49;14.40;;;12.88;;
50225;SDS011;36113;50.742;6.432;2023-05-14T02:54:14;19.63;;;13.23;;
50225;SDS011;36113;50.742;6.432;2023-05-14T02:56:40;19.60;;;14.17;;
50225;SDS011;36113;50.742;6.432;2023-05-14T02:59:06;16.95;;;13.15;;
50225;SDS011;36113;50.742;6.432;2023-05-14T03:01:31;18.80;;;13.32;;
50225;SDS011;36113;50.742;6.432;2023-05-14T03:03:56;16.52;;;13.13;;
50225;SDS011;36113;50.742;6.432;2023-05-14T03:06:22;20.08;;;12.57;;
50225;SDS011;36113;50.742;6.432;2023-05-14T03:08:47;18.10;;;12.57;;
50225;SDS011;36113;50.742;6.432;2023-05-14T03:11:12;19.27;;;12.90;;
50225;SDS011;36113;50.742;6.432;2023-05-14T03:13:38;16.05;;;13.48;;
50225;SDS011;36113;50.742;6.432;2023-05-14T03:16:03;17.15;;;12.60;;
50225;SDS011;36113;50.742;6.432;2023-05-14T03:18:29;14.38;;;12.82;;
50225;SDS011;36113;50.742;6.432;2023-05-14T03:20:54;16.65;;;13.82;;
50225;SDS011;36113;50.742;6.432;2023-05-14T03:23:20;14.88;;;12.38;;
50225;SDS011;36113;50.742;6.432;2023-05-14T03:25:45;15.68;;;13.50;;
50225;SDS011;36113;50.742;6.432;2023-05-14T03:28:11;18.20;;;13.93;;
50225;SDS011;36113;50.742;6.432;2023-05-14T03:30:36;15.07;;;13.52;;
50225;SDS011;36113;50.742;6.432;2023-05-14T03:33:01;19.42;;;15.55;;
50225;SDS011;36113;50.742;6.432;2023-05-14T03:35:27;21.65;;;14.82;;
50225;SDS011;36113;50.742;6.432;2023-05-14T03:37:52;23.55;;;14.93;;
50225;SDS011;36113;50.742;6.432;2023-05-14T03:40:17;22.65;;;15.73;;
50225;SDS011;36113;50.742;6.432;2023-05-14T03:42:43;16.45;;;14.82;;
50225;SDS011;36113;50.742;6.432;2023-05-14T03:45:08;17.25;;;15.52;;
50225;SDS011;36113;50.742;6.432;2023-05-14T03:47:34;18.00;;;14.98;;
50225;SDS011;36113;50.742;6.432;2023-05-14T03:49:59;22.08;;;16.98;;
50225;SDS011;36113;50.742;6.432;2023-05-14T03:52:24;22.10;;;16.20;;
50225;SDS011;36113;50.742;6.432;2023-05-14T03:54:50;20.52;;;15.98;;
50225;SDS011;36113;50.742;6.432;2023-05-14T03:57:15;27.95;;;17.10;;
50225;SDS011;36113;50.742;6.432;2023-05-14T03:59:40;18.92;;;15.40;;
50225;SDS011;36113;50.742;6.432;2023-05-14T04:02:06;24.17;;;16.88;;
50225;SDS011;36113;50.742;6.432;2023-05-14T04:04:31;18.98;;;15.77;;
50225;SDS011;36113;50.742;6.432;2023-05-14T04:06:56;20.85;;;17.45;;
50225;SDS011;36113;50.742;6.432;2023-05-14T04:09:22;18.67;;;15.57;;
50225;SDS011;36113;50.742;6.432;2023-05-14T04:11:47;16.88;;;15.02;;
50225;SDS011;36113;50.742;6.432;2023-05-14T04:14:12;21.20;;;16.67;;
50225;SDS011;36113;50.742;6.432;2023-05-14T04:16:38;22.20;;;16.52;;
50225;SDS011;36113;50.742;6.432;2023-05-14T04:19:03;20.48;;;18.27;;
50225;SDS011;36113;50.742;6.432;2023-05-14T04:21:30;18.83;;;15.70;;
50225;SDS011;36113;50.742;6.432;2023-05-14T04:23:55;19.10;;;16.25;;
50225;SDS011;36113;50.742;6.432;2023-05-14T04:26:21;21.27;;;15.48;;
50225;SDS011;36113;50.742;6.432;2023-05-14T04:28:46;19.48;;;16.67;;
50225;SDS011;36113;50.742;6.432;2023-05-14T04:31:12;17.77;;;15.60;;
50225;SDS011;36113;50.742;6.432;2023-05-14T04:33:37;17.08;;;15.25;;
50225;SDS011;36113;50.742;6.432;2023-05-14T04:36:03;17.77;;;15.10;;
50225;SDS011;36113;50.742;6.432;2023-05-14T04:38:29;18.13;;;16.23;;
50225;SDS011;36113;50.742;6.432;2023-05-14T04:40:56;16.77;;;14.90;;
50225;SDS011;36113;50.742;6.432;2023-05-14T04:43:21;17.50;;;15.48;;
50225;SDS011;36113;50.742;6.432;2023-05-14T04:45:46;15.80;;;14.18;;
50225;SDS011;36113;50.742;6.432;2023-05-14T04:48:12;16.70;;;15.10;;
50225;SDS011;36113;50.742;6.432;2023-05-14T04:50:37;17.60;;;14.60;;
50225;SDS011;36113;50.742;6.432;2023-05-14T04:53:02;18.55;;;15.65;;
50225;SDS011;36113;50.742;6.432;2023-05-14T04:55:28;17.55;;;15.43;;
50225;SDS011;36113;50.742;6.432;2023-05-14T04:57:53;18.13;;;16.17;;
50225;SDS011;36113;50.742;6.432;2023-05-14T05:00:18;16.65;;;14.95;;
50225;SDS011;36113;50.742;6.432;2023-05-14T05:05:10;17.27;;;14.80;;
50225;SDS011;36113;50.742;6.432;2023-05-14T05:07:36;19.13;;;14.43;;
50225;SDS011;36113;50.742;6.432;2023-05-14T05:10:01;16.20;;;14.63;;
50225;SDS011;36113;50.742;6.432;2023-05-14T05:12:26;15.82;;;14.23;;
50225;SDS011;36113;50.742;6.432;2023-05-14T05:14:54;16.38;;;13.77;;
50225;SDS011;36113;50.742;6.432;2023-05-14T05:17:21;19.60;;;13.15;;
50225;SDS011;36113;50.742;6.432;2023-05-14T05:19:46;16.77;;;13.52;;
50225;SDS011;36113;50.742;6.432;2023-05-14T05:22:12;15.80;;;12.60;;
50225;SDS011;36113;50.742;6.432;2023-05-14T05:24:37;14.60;;;13.20;;
50225;SDS011;36113;50.742;6.432;2023-05-14T05:27:02;18.30;;;12.57;;
50225;SDS011;36113;50.742;6.432;2023-05-14T05:29:29;16.13;;;13.20;;
50225;SDS011;36113;50.742;6.432;2023-05-14T05:31:54;17.35;;;12.13;;
50225;SDS011;36113;50.742;6.432;2023-05-14T05:34:20;17.45;;;14.40;;
50225;SDS011;36113;50.742;6.432;2023-05-14T05:36:45;14.23;;;12.73;;
50225;SDS011;36113;50.742;6.432;2023-05-14T05:39:11;15.47;;;12.83;;
50225;SDS011;36113;50.742;6.432;2023-05-14T05:41:36;16.17;;;14.32;;
50225;SDS011;36113;50.742;6.432;2023-05-14T05:44:02;15.25;;;13.57;;
50225;SDS011;36113;50.742;6.432;2023-05-14T05:46:27;15.20;;;13.18;;
50225;SDS011;36113;50.742;6.432;2023-05-14T05:48:52;14.80;;;13.23;;
50225;SDS011;36113;50.742;6.432;2023-05-14T05:51:18;13.23;;;12.07;;
50225;SDS011;36113;50.742;6.432;2023-05-14T05:53:43;16.23;;;12.45;;
50225;SDS011;36113;50.742;6.432;2023-05-14T05:56:08;14.98;;;13.15;;
50225;SDS011;36113;50.742;6.432;2023-05-14T05:58:34;17.90;;;13.23;;
50225;SDS011;36113;50.742;6.432;2023-05-14T06:00:59;14.40;;;12.60;;
50225;SDS011;36113;50.742;6.432;2023-05-14T06:03:25;13.60;;;12.30;;
50225;SDS011;36113;50.742;6.432;2023-05-14T06:05:51;14.75;;;13.07;;
50225;SDS011;36113;50.742;6.432;2023-05-14T06:08:18;16.30;;;12.95;;
50225;SDS011;36113;50.742;6.432;2023-05-14T06:10:44;12.52;;;11.43;;
50225;SDS011;36113;50.742;6.432;2023-05-14T06:13:10;12.47;;;11.23;;
50225;SDS011;36113;50.742;6.432;2023-05-14T06:15:35;12.93;;;11.60;;
50225;SDS011;36113;50.742;6.432;2023-05-14T06:18:00;11.73;;;10.55;;
50225;SDS011;36113;50.742;6.432;2023-05-14T06:20:26;16.90;;;11.73;;
50225;SDS011;36113;50.742;6.432;2023-05-14T06:22:51;12.50;;;11.30;;
50225;SDS011;36113;50.742;6.432;2023-05-14T06:25:16;13.80;;;12.50;;
50225;SDS011;36113;50.742;6.432;2023-05-14T06:27:42;13.35;;;12.00;;
50225;SDS011;36113;50.742;6.432;2023-05-14T06:30:07;13.53;;;12.13;;
50225;SDS011;36113;50.742;6.432;2023-05-14T06:32:33;15.10;;;13.67;;
50225;SDS011;36113;50.742;6.432;2023-05-14T06:34:58;15.55;;;12.80;;
50225;SDS011;36113;50.742;6.432;2023-05-14T06:37:23;15.95;;;14.35;;
50225;SDS011;36113;50.742;6.432;2023-05-14T06:39:49;20.00;;;14.37;;
50225;SDS011;36113;50.742;6.432;2023-05-14T06:42:15;16.53;;;14.27;;
50225;SDS011;36113;50.742;6.432;2023-05-14T06:44:40;16.63;;;14.93;;
50225;SDS011;36113;50.742;6.432;2023-05-14T06:47:06;18.20;;;15.00;;
50225;SDS011;36113;50.742;6.432;2023-05-14T06:49:32;16.00;;;14.33;;
50225;SDS011;36113;50.742;6.432;2023-05-14T06:51:58;16.13;;;14.30;;
50225;SDS011;36113;50.742;6.432;2023-05-14T06:54:24;16.27;;;14.67;;
50225;SDS011;36113;50.742;6.432;2023-05-14T06:56:49;14.33;;;13.03;;
50225;SDS011;36113;50.742;6.432;2023-05-14T06:59:14;15.55;;;14.05;;
50225;SDS011;36113;50.742;6.432;2023-05-14T07:01:40;15.73;;;14.00;;
50225;SDS011;36113;50.742;6.432;2023-05-14T07:04:05;15.27;;;13.80;;
50225;SDS011;36113;50.742;6.432;2023-05-14T07:06:30;15.57;;;14.07;;
50225;SDS011;36113;50.742;6.432;2023-05-14T07:08:56;17.13;;;15.13;;
50225;SDS011;36113;50.742;6.432;2023-05-14T07:11:22;17.60;;;15.90;;
50225;SDS011;36113;50.742;6.432;2023-05-14T07:13:47;16.77;;;14.98;;
50225;SDS011;36113;50.742;6.432;2023-05-14T07:16:12;24.92;;;15.52;;
50225;SDS011;36113;50.742;6.432;2023-05-14T07:18:37;18.30;;;16.40;;
50225;SDS011;36113;50.742;6.432;2023-05-14T07:21:03;17.67;;;15.93;;
50225;SDS011;36113;50.742;6.432;2023-05-14T07:23:32;18.67;;;16.80;;
50225;SDS011;36113;50.742;6.432;2023-05-14T07:26:00;17.95;;;16.33;;
50225;SDS011;36113;50.742;6.432;2023-05-14T07:28:25;18.55;;;16.48;;
50225;SDS011;36113;50.742;6.432;2023-05-14T07:30:50;19.07;;;17.10;;
50225;SDS011;36113;50.742;6.432;2023-05-14T07:33:15;17.00;;;15.40;;
50225;SDS011;36113;50.742;6.432;2023-05-14T07:35:41;16.70;;;15.20;;
50225;SDS011;36113;50.742;6.432;2023-05-14T07:38:06;17.07;;;13.97;;
50225;SDS011;36113;50.742;6.432;2023-05-14T07:40:31;17.33;;;15.57;;
50225;SDS011;36113;50.742;6.432;2023-05-14T07:42:57;17.00;;;13.53;;
50225;SDS011;36113;50.742;6.432;2023-05-14T07:45:22;13.80;;;12.60;;
50225;SDS011;36113;50.742;6.432;2023-05-14T07:47:47;18.43;;;10.60;;
50225;SDS011;36113;50.742;6.432;2023-05-14T07:50:16;11.45;;;8.80;;
50225;SDS011;36113;50.742;6.432;2023-05-14T07:52:42;17.15;;;8.68;;
50225;SDS011;36113;50.742;6.432;2023-05-14T07:55:07;12.73;;;11.07;;
50225;SDS011;36113;50.742;6.432;2023-05-14T07:57:33;12.37;;;11.10;;
50225;SDS011;36113;50.742;6.432;2023-05-14T07:59:58;13.50;;;10.83;;
50225;SDS011;36113;50.742;6.432;2023-05-14T08:02:24;10.20;;;9.30;;
50225;SDS011;36113;50.742;6.432;2023-05-14T08:04:49;10.63;;;7.97;;
50225;SDS011;36113;50.742;6.432;2023-05-14T08:07:14;12.83;;;9.87;;
50225;SDS011;36113;50.742;6.432;2023-05-14T08:09:40;10.53;;;8.83;;
50225;SDS011;36113;50.742;6.432;2023-05-14T08:12:05;9.27;;;8.37;;
50225;SDS011;36113;50.742;6.432;2023-05-14T08:14:31;9.53;;;8.40;;
50225;SDS011;36113;50.742;6.432;2023-05-14T08:16:56;8.60;;;7.90;;
50225;SDS011;36113;50.742;6.432;2023-05-14T08:19:22;9.97;;;9.03;;
50225;SDS011;36113;50.742;6.432;2023-05-14T08:21:48;8.25;;;7.45;;
50225;SDS011;36113;50.742;6.432;2023-05-14T08:24:13;9.23;;;8.37;;
50225;SDS011;36113;50.742;6.432;2023-05-14T08:26:39;7.93;;;7.20;;
50225;SDS011;36113;50.742;6.432;2023-05-14T08:29:04;8.73;;;7.77;;
50225;SDS011;36113;50.742;6.432;2023-05-14T08:31:29;7.90;;;7.17;;
50225;SDS011;36113;50.742;6.432;2023-05-14T08:33:55;8.97;;;8.10;;
50225;SDS011;36113;50.742;6.432;2023-05-14T08:36:20;9.50;;;7.53;;
50225;SDS011;36113;50.742;6.432;2023-05-14T08:38:45;8.50;;;7.73;;
50225;SDS011;36113;50.742;6.432;2023-05-14T08:41:12;8.23;;;7.47;;
50225;SDS011;36113;50.742;6.432;2023-05-14T08:46:22;12.45;;;10.68;;
50225;SDS011;36113;50.742;6.432;2023-05-14T08:49:02;11.70;;;10.70;;
50225;SDS011;36113;50.742;6.432;2023-05-14T08:51:49;13.60;;;11.98;;
50225;SDS011;36113;50.742;6.432;2023-05-14T08:54:15;13.47;;;12.03;;
50225;SDS011;36113;50.742;6.432;2023-05-14T08:56:43;13.82;;;11.68;;
50225;SDS011;36113;50.742;6.432;2023-05-14T08:59:10;14.07;;;12.10;;
50225;SDS011;36113;50.742;6.432;2023-05-14T09:01:36;13.50;;;12.13;;
50225;SDS011;36113;50.742;6.432;2023-05-14T09:04:03;16.02;;;11.65;;
50225;SDS011;36113;50.742;6.432;2023-05-14T09:06:33;13.07;;;11.88;;
50225;SDS011;36113;50.742;6.432;2023-05-14T09:09:01;12.52;;;11.52;;
50225;SDS011;36113;50.742;6.432;2023-05-14T09:11:27;10.57;;;9.57;;
50225;SDS011;36113;50.742;6.432;2023-05-14T09:13:52;11.00;;;10.10;;
50225;SDS011;36113;50.742;6.432;2023-05-14T09:16:17;15.00;;;13.33;;
50225;SDS011;36113;50.742;6.432;2023-05-14T09:18:44;13.85;;;12.57;;
50225;SDS011;36113;50.742;6.432;2023-05-14T09:21:12;15.00;;;12.30;;
50225;SDS011;36113;50.742;6.432;2023-05-14T09:23:40;13.07;;;11.77;;
50225;SDS011;36113;50.742;6.432;2023-05-14T09:26:08;15.88;;;13.05;;
50225;SDS011;36113;50.742;6.432;2023-05-14T09:28:33;17.07;;;14.17;;
50225;SDS011;36113;50.742;6.432;2023-05-14T09:30:59;14.30;;;12.90;;
50225;SDS011;36113;50.742;6.432;2023-05-14T09:33:25;18.90;;;15.47;;
50225;SDS011;36113;50.742;6.432;2023-05-14T09:35:53;15.10;;;11.30;;
50225;SDS011;36113;50.742;6.432;2023-05-14T09:38:20;14.48;;;13.07;;
50225;SDS011;36113;50.742;6.432;2023-05-14T09:40:48;20.02;;;16.55;;
50225;SDS011;36113;50.742;6.432;2023-05-14T09:43:13;16.43;;;13.07;;
50225;SDS011;36113;50.742;6.432;2023-05-14T09:45:39;16.07;;;14.23;;
50225;SDS011;36113;50.742;6.432;2023-05-14T09:48:04;17.70;;;15.87;;
50225;SDS011;36113;50.742;6.432;2023-05-14T09:50:30;16.50;;;14.73;;
50225;SDS011;36113;50.742;6.432;2023-05-14T09:52:55;18.37;;;15.47;;
50225;SDS011;36113;50.742;6.432;2023-05-14T09:55:21;22.87;;;16.80;;
50225;SDS011;36113;50.742;6.432;2023-05-14T09:57:47;20.08;;;16.90;;
50225;SDS011;36113;50.742;6.432;2023-05-14T10:00:12;20.40;;;15.77;;
50225;SDS011;36113;50.742;6.432;2023-05-14T10:02:38;19.77;;;17.88;;
50225;SDS011;36113;50.742;6.432;2023-05-14T10:05:06;19.83;;;17.75;;
50225;SDS011;36113;50.742;6.432;2023-05-14T10:07:34;23.50;;;18.03;;
50225;SDS011;36113;50.742;6.432;2023-05-14T10:10:03;22.58;;;20.17;;
50225;SDS011;36113;50.742;6.432;2023-05-14T10:12:32;19.65;;;15.90;;
50225;SDS011;36113;50.742;6.432;2023-05-14T10:15:02;18.65;;;15.70;;
50225;SDS011;36113;50.742;6.432;2023-05-14T10:17:31;22.70;;;19.90;;
50225;SDS011;36113;50.742;6.432;2023-05-14T10:19:58;22.52;;;19.17;;
50225;SDS011;36113;50.742;6.432;2023-05-14T10:22:28;21.38;;;18.90;;
50225;SDS011;36113;50.742;6.432;2023-05-14T10:24:57;25.02;;;20.48;;
50225;SDS011;36113;50.742;6.432;2023-05-14T10:27:23;24.63;;;18.80;;
50225;SDS011;36113;50.742;6.432;2023-05-14T10:29:51;23.40;;;17.98;;
50225;SDS011;36113;50.742;6.432;2023-05-14T10:32:18;23.50;;;18.02;;
50225;SDS011;36113;50.742;6.432;2023-05-14T10:34:44;16.65;;;14.35;;
50225;SDS011;36113;50.742;6.432;2023-05-14T10:37:11;24.73;;;18.00;;
50225;SDS011;36113;50.742;6.432;2023-05-14T10:42:51;32.90;;;20.85;;
50225;SDS011;36113;50.742;6.432;2023-05-14T10:45:05;26.45;;;20.48;;
50225;SDS011;36113;50.742;6.432;2023-05-14T10:47:35;20.63;;;18.27;;
50225;SDS011;36113;50.742;6.432;2023-05-14T10:50:02;20.00;;;17.67;;
50225;SDS011;36113;50.742;6.432;2023-05-14T10:52:31;24.60;;;22.00;;
50225;SDS011;36113;50.742;6.432;2023-05-14T10:54:58;23.88;;;20.98;;
50225;SDS011;36113;50.742;6.432;2023-05-14T10:57:26;25.88;;;21.77;;
50225;SDS011;36113;50.742;6.432;2023-05-14T10:59:55;23.27;;;18.13;;
50225;SDS011;36113;50.742;6.432;2023-05-14T11:07:30;28.05;;;22.95;;
50225;SDS011;36113;50.742;6.432;2023-05-14T11:12:30;21.05;;;18.80;;
50225;SDS011;36113;50.742;6.432;2023-05-14T11:14:57;21.65;;;19.15;;
50225;SDS011;36113;50.742;6.432;2023-05-14T11:17:28;22.63;;;18.80;;
50225;SDS011;36113;50.742;6.432;2023-05-14T11:19:54;24.38;;;19.17;;
50225;SDS011;36113;50.742;6.432;2023-05-14T11:22:20;19.80;;;17.65;;
50225;SDS011;36113;50.742;6.432;2023-05-14T11:24:46;23.25;;;18.88;;
50225;SDS011;36113;50.742;6.432;2023-05-14T11:27:11;19.00;;;16.93;;
50225;SDS011;36113;50.742;6.432;2023-05-14T11:29:37;19.17;;;16.53;;
50225;SDS011;36113;50.742;6.432;2023-05-14T11:32:03;16.67;;;13.43;;
50225;SDS011;36113;50.742;6.432;2023-05-14T11:34:30;21.23;;;16.23;;
50225;SDS011;36113;50.742;6.432;2023-05-14T11:36:55;18.70;;;15.57;;
50225;SDS011;36113;50.742;6.432;2023-05-14T11:39:21;21.87;;;17.93;;
50225;SDS011;36113;50.742;6.432;2023-05-14T11:41:46;16.93;;;15.17;;
50225;SDS011;36113;50.742;6.432;2023-05-14T11:44:11;19.37;;;15.77;;
50225;SDS011;36113;50.742;6.432;2023-05-14T11:46:37;13.23;;;11.90;;
50225;SDS011;36113;50.742;6.432;2023-05-14T11:49:03;16.93;;;15.13;;
50225;SDS011;36113;50.742;6.432;2023-05-14T11:51:28;19.20;;;17.27;;
50225;SDS011;36113;50.742;6.432;2023-05-14T11:53:54;20.47;;;18.27;;
50225;SDS011;36113;50.742;6.432;2023-05-14T11:56:20;16.87;;;15.17;;
50225;SDS011;36113;50.742;6.432;2023-05-14T11:58:46;15.40;;;12.20;;
50225;SDS011;36113;50.742;6.432;2023-05-14T12:01:12;13.70;;;12.27;;
50225;SDS011;36113;50.742;6.432;2023-05-14T12:03:38;19.50;;;16.73;;
50225;SDS011;36113;50.742;6.432;2023-05-14T12:06:05;18.77;;;16.67;;
50225;SDS011;36113;50.742;6.432;2023-05-14T12:08:32;18.83;;;16.45;;
50225;SDS011;36113;50.742;6.432;2023-05-14T12:10:58;15.43;;;13.03;;
50225;SDS011;36113;50.742;6.432;2023-05-14T12:13:27;12.80;;;11.57;;
50225;SDS011;36113;50.742;6.432;2023-05-14T12:15:54;13.52;;;12.23;;
50225;SDS011;36113;50.742;6.432;2023-05-14T12:18:21;12.30;;;11.10;;
50225;SDS011;36113;50.742;6.432;2023-05-14T12:20:48;10.27;;;9.23;;
50225;SDS011;36113;50.742;6.432;2023-05-14T12:25:48;11.90;;;10.68;;
50225;SDS011;36113;50.742;6.432;2023-05-14T12:28:14;14.15;;;12.73;;
50225;SDS011;36113;50.742;6.432;2023-05-14T12:33:06;15.32;;;11.70;;
50225;SDS011;36113;50.742;6.432;2023-05-14T12:35:31;15.13;;;10.90;;
50225;SDS011;36113;50.742;6.432;2023-05-14T12:37:57;12.47;;;10.67;;
50225;SDS011;36113;50.742;6.432;2023-05-14T12:40:22;13.97;;;12.57;;
50225;SDS011;36113;50.742;6.432;2023-05-14T12:42:47;14.53;;;13.13;;
50225;SDS011;36113;50.742;6.432;2023-05-14T12:45:13;14.57;;;13.17;;
50225;SDS011;36113;50.742;6.432;2023-05-14T12:47:38;14.07;;;12.63;;
50225;SDS011;36113;50.742;6.432;2023-05-14T12:50:03;11.20;;;10.10;;
50225;SDS011;36113;50.742;6.432;2023-05-14T12:52:30;9.25;;;8.43;;
50225;SDS011;36113;50.742;6.432;2023-05-14T12:54:55;9.40;;;8.13;;
50225;SDS011;36113;50.742;6.432;2023-05-14T12:57:20;9.80;;;8.20;;
50225;SDS011;36113;50.742;6.432;2023-05-14T12:59:46;9.67;;;8.70;;
50225;SDS011;36113;50.742;6.432;2023-05-14T13:02:11;11.63;;;10.47;;
50225;SDS011;36113;50.742;6.432;2023-05-14T13:04:36;13.17;;;11.10;;
50225;SDS011;36113;50.742;6.432;2023-05-14T13:07:02;11.93;;;10.83;;
50225;SDS011;36113;50.742;6.432;2023-05-14T13:09:27;12.27;;;9.90;;
50225;SDS011;36113;50.742;6.432;2023-05-14T13:11:53;10.43;;;9.33;;
50225;SDS011;36113;50.742;6.432;2023-05-14T13:14:18;10.47;;;9.57;;
50225;SDS011;36113;50.742;6.432;2023-05-14T13:16:43;12.07;;;9.37;;
50225;SDS011;36113;50.742;6.432;2023-05-14T13:19:08;7.83;;;7.03;;
50225;SDS011;36113;50.742;6.432;2023-05-14T13:21:34;7.93;;;7.03;;
50225;SDS011;36113;50.742;6.432;2023-05-14T13:23:59;10.53;;;6.67;;
50225;SDS011;36113;50.742;6.432;2023-05-14T13:26:25;7.90;;;7.33;;
50225;SDS011;36113;50.742;6.432;2023-05-14T13:28:52;12.38;;;8.70;;
50225;SDS011;36113;50.742;6.432;2023-05-14T13:31:17;8.57;;;7.77;;
50225;SDS011;36113;50.742;6.432;2023-05-14T13:33:43;13.37;;;7.93;;
50225;SDS011;36113;50.742;6.432;2023-05-14T13:36:09;8.55;;;7.95;;
50225;SDS011;36113;50.742;6.432;2023-05-14T13:38:36;10.10;;;8.93;;
50225;SDS011;36113;50.742;6.432;2023-05-14T13:41:01;7.87;;;7.20;;
50225;SDS011;36113;50.742;6.432;2023-05-14T13:43:27;7.67;;;6.47;;
50225;SDS011;36113;50.742;6.432;2023-05-14T13:45:53;8.00;;;7.20;;
50225;SDS011;36113;50.742;6.432;2023-05-14T13:48:19;8.80;;;7.93;;
50225;SDS011;36113;50.742;6.432;2023-05-14T13:50:44;10.03;;;9.07;;
50225;SDS011;36113;50.742;6.432;2023-05-14T13:53:10;10.33;;;9.33;;
50225;SDS011;36113;50.742;6.432;2023-05-14T13:55:35;9.60;;;8.07;;
50225;SDS011;36113;50.742;6.432;2023-05-14T13:58:00;11.50;;;10.37;;
50225;SDS011;36113;50.742;6.432;2023-05-14T14:00:26;12.50;;;11.30;;
50225;SDS011;36113;50.742;6.432;2023-05-14T14:02:51;12.03;;;10.00;;
50225;SDS011;36113;50.742;6.432;2023-05-14T14:05:17;8.20;;;7.33;;
50225;SDS011;36113;50.742;6.432;2023-05-14T14:07:42;7.17;;;6.47;;
50225;SDS011;36113;50.742;6.432;2023-05-14T14:10:07;11.07;;;6.80;;
50225;SDS011;36113;50.742;6.432;2023-05-14T14:12:33;7.80;;;7.20;;
50225;SDS011;36113;50.742;6.432;2023-05-14T14:14:58;7.90;;;7.20;;
50225;SDS011;36113;50.742;6.432;2023-05-14T14:17:25;9.35;;;7.28;;
50225;SDS011;36113;50.742;6.432;2023-05-14T14:19:50;11.50;;;9.20;;
50225;SDS011;36113;50.742;6.432;2023-05-14T14:22:15;11.57;;;10.37;;
50225;SDS011;36113;50.742;6.432;2023-05-14T14:24:43;16.60;;;10.15;;
50225;SDS011;36113;50.742;6.432;2023-05-14T14:27:10;11.97;;;10.80;;
50225;SDS011;36113;50.742;6.432;2023-05-14T14:29:35;13.15;;;11.80;;
50225;SDS011;36113;50.742;6.432;2023-05-14T14:32:01;10.33;;;9.47;;
50225;SDS011;36113;50.742;6.432;2023-05-14T14:34:27;12.10;;;10.77;;
50225;SDS011;36113;50.742;6.432;2023-05-14T14:36:52;9.87;;;8.97;;
50225;SDS011;36113;50.742;6.432;2023-05-14T14:39:17;8.47;;;7.67;;
50225;SDS011;36113;50.742;6.432;2023-05-14T14:41:43;11.30;;;7.17;;
50225;SDS011;36113;50.742;6.432;2023-05-14T14:44:08;7.13;;;6.43;;
50225;SDS011;36113;50.742;6.432;2023-05-14T14:46:33;7.00;;;6.37;;
50225;SDS011;36113;50.742;6.432;2023-05-14T14:48:59;8.07;;;6.30;;
50225;SDS011;36113;50.742;6.432;2023-05-14T14:51:24;13.97;;;6.90;;
50225;SDS011;36113;50.742;6.432;2023-05-14T14:53:49;6.87;;;6.03;;